Weather at 4275 Executive Square Helipad

Public forecast

Using degrees Fahrenheit for public forecast. Weather courtesy of forecast.io.

Closest aviation weather report (METAR) to 4275 Executive Square Helipad

Closest report is Miramar Marine Corps Air Station - Mitscher Field, 3.6 nm (6.7 km) E.

2024/07/19 04:55 (retrieved 12 minutes ago)

KNKX 190455Z 27004KT 8SM CLR 18/16 A2998 RMK AO2 SLP148 T01780156

Closest aviation forecast (TAF) to 4275 Executive Square Helipad

Forecast is more than 6 hours old.

Closest forecast is Miramar Marine Corps Air Station - Mitscher Field, 3.6 nm (6.7 km) E.

2024/07/18 21:07 Ammendment (retrieved 8 hours ago)

TAF AMD KNKX 1821/1921 25009KT 9999 FEW010 FEW050CB QNH2998INS BECMG 1902/1904 VRB03KT 8000 BR BKN010 QNH2996INS FM191430 VRB03KT 9000 BR SCT010 QNH2998INS FM191600 32005KT 9999 NSW SCT012 QNH2998INS T26/1822Z T18/1913Z